createdAt,value
2019-01-24T00:01:08.312Z,41.57
2019-01-24T00:03:37.961Z,39.80
2019-01-24T00:06:07.609Z,43.63
2019-01-24T00:08:37.324Z,37.20
2019-01-24T00:11:06.991Z,44.80
2019-01-24T00:13:36.680Z,41.03
2019-01-24T00:16:08.237Z,40.90
2019-01-24T00:18:38.003Z,37.80
2019-01-24T00:21:07.635Z,43.73
2019-01-24T00:23:37.302Z,47.67
2019-01-24T00:26:07.120Z,37.17
2019-01-24T00:28:36.763Z,37.40
2019-01-24T00:31:06.441Z,35.90
2019-01-24T00:33:36.063Z,38.73
2019-01-24T00:36:06.390Z,39.90
2019-01-24T00:38:35.996Z,40.87
2019-01-24T00:41:05.763Z,37.83
2019-01-24T00:43:35.443Z,38.83
2019-01-24T00:46:05.080Z,37.97
2019-01-24T00:48:34.741Z,43.30
2019-01-24T00:51:04.372Z,41.30
2019-01-24T00:53:34.043Z,36.60
2019-01-24T00:56:03.967Z,41.37
2019-01-24T00:58:33.577Z,30.90
2019-01-24T01:01:03.266Z,37.23
2019-01-24T01:03:32.869Z,41.23
2019-01-24T01:06:02.931Z,44.70
2019-01-24T01:08:32.618Z,40.73
2019-01-24T01:11:02.255Z,27.43
2019-01-24T01:13:32.014Z,39.43
2019-01-24T01:16:01.695Z,43.67
2019-01-24T01:18:31.386Z,42.87
2019-01-24T01:21:01.108Z,42.53
2019-01-24T01:23:30.727Z,43.50
2019-01-24T01:26:00.394Z,45.87
2019-01-24T01:28:30.010Z,41.87
2019-01-24T01:30:59.793Z,40.03
2019-01-24T01:33:29.457Z,39.07
2019-01-24T01:35:59.162Z,43.50
2019-01-24T01:38:28.799Z,35.57
2019-01-24T01:40:58.483Z,39.60
2019-01-24T01:43:28.106Z,46.43
2019-01-24T01:45:57.759Z,37.87
2019-01-24T01:48:27.427Z,42.80
2019-01-24T01:50:57.056Z,47.13
2019-01-24T01:53:26.727Z,41.57
2019-01-24T01:55:56.347Z,43.20
2019-01-24T01:58:26.014Z,41.03
2019-01-24T02:00:55.640Z,36.77
2019-01-24T02:03:25.279Z,41.70
2019-01-24T02:05:54.970Z,43.73
2019-01-24T02:08:24.565Z,35.63
2019-01-24T02:10:54.263Z,41.73
2019-01-24T02:13:23.916Z,39.77
2019-01-24T02:15:53.600Z,42.33
2019-01-24T02:18:23.223Z,41.93
2019-01-24T02:20:52.965Z,31.83
2019-01-24T02:23:22.598Z,35.10
2019-01-24T02:25:52.296Z,39.53
2019-01-24T02:28:21.987Z,36.13
2019-01-24T02:30:51.622Z,37.57
2019-01-24T02:33:21.349Z,35.23
2019-01-24T02:35:51.002Z,37.70
2019-01-24T02:38:20.669Z,33.67
2019-01-24T02:40:50.310Z,46.27
2019-01-24T02:43:20.007Z,36.00
2019-01-24T02:45:49.632Z,41.63
2019-01-24T02:48:19.336Z,33.53
2019-01-24T02:50:49.012Z,33.40
2019-01-24T02:53:18.724Z,45.07
2019-01-24T02:55:48.333Z,38.73
2019-01-24T02:58:18.021Z,37.63
2019-01-24T03:00:47.634Z,40.27
2019-01-24T03:03:17.294Z,37.17
2019-01-24T03:05:46.978Z,41.80
2019-01-24T03:08:16.677Z,44.73
2019-01-24T03:10:46.394Z,45.13
2019-01-24T03:13:16.014Z,42.93
2019-01-24T03:15:45.647Z,42.70
2019-01-24T03:18:15.319Z,42.00
2019-01-24T03:20:45.013Z,39.87
2019-01-24T03:23:15.088Z,42.90
2019-01-24T03:25:44.770Z,42.33
2019-01-24T03:28:14.482Z,43.57
2019-01-24T03:30:44.156Z,48.00
2019-01-24T03:33:13.850Z,42.50
2019-01-24T03:35:43.560Z,45.30
2019-01-24T03:38:13.221Z,42.63
2019-01-24T03:40:42.831Z,44.17
2019-01-24T03:43:12.532Z,44.63
2019-01-24T03:45:42.151Z,40.33
2019-01-24T03:48:11.846Z,37.93
2019-01-24T03:50:41.483Z,43.67
2019-01-24T03:53:11.153Z,42.90
2019-01-24T03:55:40.828Z,38.67
2019-01-24T03:58:10.545Z,44.87
2019-01-24T04:00:40.163Z,44.27
2019-01-24T04:03:09.849Z,39.33
2019-01-24T04:05:39.469Z,49.63
2019-01-24T04:08:09.513Z,48.77
2019-01-24T04:10:39.155Z,39.40
2019-01-24T04:13:08.767Z,42.47
2019-01-24T04:15:38.635Z,45.93
2019-01-24T04:18:08.662Z,45.50
2019-01-24T04:20:38.348Z,46.53
2019-01-24T04:23:08.079Z,38.37
2019-01-24T04:25:37.698Z,44.93
2019-01-24T04:28:07.383Z,39.80
2019-01-24T04:30:37.019Z,41.30
2019-01-24T04:33:06.728Z,41.27
2019-01-24T04:35:36.527Z,47.43
2019-01-24T04:38:06.246Z,46.60
2019-01-24T04:40:35.852Z,47.63
2019-01-24T04:43:05.464Z,42.77
2019-01-24T04:45:35.141Z,44.90
2019-01-24T04:48:04.889Z,41.53
2019-01-24T04:50:34.567Z,43.40
2019-01-24T04:53:04.195Z,41.20
2019-01-24T04:55:33.867Z,45.00
2019-01-24T04:58:03.476Z,45.17
2019-01-24T05:00:33.231Z,43.70
2019-01-24T05:03:02.925Z,51.90
2019-01-24T05:05:32.555Z,43.23
2019-01-24T05:08:02.243Z,43.63
2019-01-24T05:10:31.866Z,47.70
2019-01-24T05:13:01.544Z,42.60
2019-01-24T05:15:31.183Z,48.37
2019-01-24T05:18:00.892Z,55.97
2019-01-24T05:20:30.527Z,41.40
2019-01-24T05:23:00.284Z,48.17
2019-01-24T05:25:29.979Z,46.43
2019-01-24T05:27:59.664Z,59.77
2019-01-24T05:30:29.901Z,49.57
2019-01-24T05:32:59.575Z,45.57
2019-01-24T05:35:34.749Z,50.67
2019-01-24T05:38:00.674Z,43.57
2019-01-24T05:40:30.321Z,48.57
2019-01-24T05:43:00.012Z,46.43
2019-01-24T05:45:29.710Z,53.00
2019-01-24T05:47:59.348Z,46.93
2019-01-24T05:50:28.953Z,53.90
2019-01-24T05:52:58.696Z,55.90
2019-01-24T05:55:28.474Z,44.83
2019-01-24T05:57:58.339Z,59.23
2019-01-24T06:00:47.049Z,52.50
2019-01-24T06:03:16.859Z,50.57
2019-01-24T06:05:46.516Z,47.57
2019-01-24T06:08:16.121Z,52.17
2019-01-24T06:10:45.823Z,49.87
2019-01-24T06:13:15.437Z,38.07
2019-01-24T06:15:45.399Z,46.87
2019-01-24T06:18:15.012Z,47.80
2019-01-24T06:20:44.687Z,45.53
2019-01-24T06:23:14.383Z,47.97
2019-01-24T06:25:44.093Z,47.43
2019-01-24T06:28:13.727Z,42.43
2019-01-24T06:30:43.441Z,52.77
2019-01-24T06:33:13.130Z,47.57
2019-01-24T06:35:48.676Z,50.90
2019-01-24T06:38:14.248Z,45.17
2019-01-24T06:40:43.959Z,48.57
2019-01-24T06:43:13.644Z,51.63
2019-01-24T06:45:43.297Z,51.70
2019-01-24T06:48:13.132Z,49.87
2019-01-24T06:50:42.766Z,50.23
2019-01-24T06:53:12.445Z,51.83
2019-01-24T06:55:42.079Z,50.97
2019-01-24T06:58:11.756Z,53.30
2019-01-24T07:00:41.468Z,56.60
2019-01-24T07:03:11.139Z,55.60
2019-01-24T07:05:42.853Z,46.33
2019-01-24T07:08:12.486Z,51.23
2019-01-24T07:10:42.176Z,49.43
2019-01-24T07:13:11.799Z,56.77
2019-01-24T07:15:41.555Z,51.33
2019-01-24T07:18:11.168Z,49.43
2019-01-24T07:20:40.849Z,56.63
2019-01-24T07:23:10.482Z,42.23
2019-01-24T07:25:40.153Z,43.40
2019-01-24T07:28:09.807Z,50.53
2019-01-24T07:30:39.508Z,44.30
2019-01-24T07:33:09.176Z,52.60
2019-01-24T07:35:38.863Z,44.83
2019-01-24T07:38:09.829Z,42.53
2019-01-24T07:40:39.935Z,43.40
2019-01-24T07:43:09.648Z,41.10
2019-01-24T07:45:41.928Z,47.03
2019-01-24T07:48:11.670Z,42.43
2019-01-24T07:50:41.286Z,39.27
2019-01-24T07:53:10.931Z,39.83
2019-01-24T07:55:40.634Z,36.53
2019-01-24T07:58:10.304Z,39.20
2019-01-24T08:00:40.007Z,40.53
2019-01-24T08:03:09.687Z,42.63
2019-01-24T08:05:39.358Z,44.00
2019-01-24T08:08:09.096Z,43.60
2019-01-24T08:10:38.779Z,41.47
2019-01-24T08:13:08.465Z,40.00
2019-01-24T08:15:38.234Z,35.20
2019-01-24T08:18:07.944Z,49.30
2019-01-24T08:20:37.647Z,41.33
2019-01-24T08:23:07.379Z,42.97
2019-01-24T08:25:37.046Z,44.87
2019-01-24T08:28:06.743Z,43.83
2019-01-24T08:30:36.506Z,40.57
2019-01-24T08:33:06.327Z,39.37
2019-01-24T08:35:35.991Z,38.50
2019-01-24T08:38:06.286Z,43.17
2019-01-24T08:40:35.979Z,36.30
2019-01-24T08:43:05.655Z,35.73
2019-01-24T08:45:35.305Z,46.37
2019-01-24T08:48:05.031Z,32.73
2019-01-24T08:50:34.759Z,37.70
2019-01-24T08:53:05.082Z,44.67
2019-01-24T08:55:45.065Z,42.23
2019-01-24T08:58:14.766Z,44.53
2019-01-24T09:00:51.711Z,40.03
2019-01-24T09:03:32.215Z,40.37
2019-01-24T09:06:02.059Z,37.30
2019-01-24T09:08:31.754Z,36.43
2019-01-24T09:11:01.431Z,29.50
2019-01-24T09:13:31.174Z,37.87
2019-01-24T09:16:00.831Z,36.50
2019-01-24T09:18:30.627Z,29.73
2019-01-24T09:21:00.287Z,34.40
2019-01-24T09:23:30.002Z,35.30
2019-01-24T09:25:59.710Z,29.43
2019-01-24T09:28:29.425Z,38.57
2019-01-24T09:30:59.177Z,32.80
2019-01-24T09:33:28.827Z,33.10
2019-01-24T09:35:58.549Z,33.27
2019-01-24T09:38:28.281Z,32.27
2019-01-24T09:40:58.067Z,31.17
2019-01-24T09:43:27.711Z,33.53
2019-01-24T09:45:57.578Z,35.67
2019-01-24T09:48:27.270Z,36.40
2019-01-24T09:50:56.924Z,36.50
2019-01-24T09:53:26.590Z,40.33
2019-01-24T09:55:56.309Z,37.17
2019-01-24T09:58:25.911Z,30.90
2019-01-24T10:00:56.044Z,35.70
2019-01-24T10:03:25.807Z,32.07
2019-01-24T10:05:55.409Z,34.40
2019-01-24T10:08:25.080Z,30.20
2019-01-24T10:10:54.839Z,33.67
2019-01-24T10:13:24.503Z,35.97
2019-01-24T10:15:54.160Z,35.20
2019-01-24T10:18:24.025Z,34.80
2019-01-24T10:20:53.770Z,37.03
2019-01-24T10:23:23.587Z,32.80
2019-01-24T10:25:53.248Z,32.67
2019-01-24T10:28:22.877Z,32.93
2019-01-24T10:30:52.569Z,38.53
2019-01-24T10:33:22.286Z,33.10
2019-01-24T10:35:52.220Z,33.70
2019-01-24T10:38:21.878Z,34.10
2019-01-24T10:40:51.663Z,34.20
2019-01-24T10:43:21.302Z,35.10
2019-01-24T10:45:51.003Z,34.20
2019-01-24T10:48:20.723Z,35.13
2019-01-24T10:50:50.726Z,34.30
2019-01-24T10:53:20.342Z,33.57
2019-01-24T10:55:50.054Z,36.10
2019-01-24T10:58:19.780Z,32.03
2019-01-24T11:00:49.463Z,35.73
2019-01-24T11:03:20.480Z,36.53
2019-01-24T11:05:50.151Z,34.30
2019-01-24T11:08:20.018Z,34.00
2019-01-24T11:10:49.655Z,30.43
2019-01-24T11:13:19.347Z,35.03
2019-01-24T11:15:49.038Z,36.00
2019-01-24T11:18:18.712Z,33.73
2019-01-24T11:20:48.702Z,32.10
2019-01-24T11:23:19.328Z,33.40
2019-01-24T11:25:49.023Z,34.37
2019-01-24T11:28:37.786Z,35.73
2019-01-24T11:31:07.471Z,30.80
2019-01-24T11:33:37.203Z,36.20
2019-01-24T11:36:07.785Z,29.10
2019-01-24T11:38:37.463Z,36.33
2019-01-24T11:41:07.248Z,36.00
2019-01-24T11:43:36.875Z,31.97
2019-01-24T11:46:06.809Z,29.57
2019-01-24T11:48:36.465Z,28.20
2019-01-24T11:51:06.402Z,30.27
2019-01-24T11:53:36.082Z,33.43
2019-01-24T11:56:06.339Z,34.13
2019-01-24T11:58:37.092Z,34.27
2019-01-24T12:01:06.747Z,30.53
2019-01-24T12:03:36.451Z,32.67
2019-01-24T12:06:06.441Z,33.60
2019-01-24T12:08:36.047Z,36.10
2019-01-24T12:11:05.810Z,36.43
2019-01-24T12:13:35.589Z,35.37
2019-01-24T12:16:05.229Z,39.00
2019-01-24T12:18:34.927Z,29.90
2019-01-24T12:21:04.720Z,34.20
2019-01-24T12:23:34.486Z,32.53
2019-01-24T12:26:04.191Z,33.97
2019-01-24T12:28:33.879Z,41.40
2019-01-24T12:31:03.583Z,30.03
2019-01-24T12:33:33.309Z,35.20
2019-01-24T12:36:03.050Z,33.70
2019-01-24T12:38:32.830Z,32.00
2019-01-24T12:41:02.599Z,36.70
2019-01-24T12:43:32.232Z,30.27
2019-01-24T12:46:01.917Z,31.70
2019-01-24T12:48:31.537Z,34.73
2019-01-24T12:51:01.297Z,35.53
2019-01-24T12:53:32.241Z,37.17
2019-01-24T12:56:01.945Z,36.37
2019-01-24T12:58:31.616Z,36.03
2019-01-24T13:01:01.324Z,34.00
2019-01-24T13:03:30.934Z,29.23
2019-01-24T13:06:01.033Z,35.07
2019-01-24T13:08:31.210Z,31.73
2019-01-24T13:11:01.003Z,34.50
2019-01-24T13:13:30.698Z,35.53
2019-01-24T13:16:00.351Z,27.97
2019-01-24T13:18:30.078Z,29.13
2019-01-24T13:20:59.920Z,33.97
2019-01-24T13:23:29.639Z,34.00
2019-01-24T13:25:59.315Z,31.97
2019-01-24T13:28:28.957Z,34.80
2019-01-24T13:30:58.779Z,33.13
2019-01-24T13:33:28.555Z,35.40
2019-01-24T13:35:58.286Z,39.63
2019-01-24T13:38:27.943Z,40.87
2019-01-24T13:40:57.641Z,35.10
2019-01-24T13:43:27.318Z,34.37
2019-01-24T13:45:56.955Z,40.00
2019-01-24T13:48:26.618Z,33.73
2019-01-24T13:50:56.406Z,41.57
2019-01-24T13:53:26.059Z,45.47
2019-01-24T13:55:57.161Z,40.90
2019-01-24T13:58:26.864Z,44.20
2019-01-24T14:00:56.546Z,45.37
2019-01-24T14:03:51.716Z,43.43
2019-01-24T14:06:21.414Z,45.07
2019-01-24T14:08:51.175Z,56.60
2019-01-24T14:11:20.966Z,52.27
2019-01-24T14:13:50.644Z,51.97
2019-01-24T14:16:20.308Z,51.30
2019-01-24T14:18:49.989Z,52.27
2019-01-24T14:21:19.774Z,54.77
2019-01-24T14:23:49.489Z,50.27
2019-01-24T14:26:19.173Z,55.03
2019-01-24T14:28:48.882Z,55.43
2019-01-24T14:31:18.569Z,51.57
2019-01-24T14:33:48.267Z,46.60
2019-01-24T14:36:17.907Z,55.57
2019-01-24T14:38:47.622Z,52.40
2019-01-24T14:41:17.408Z,51.77
2019-01-24T14:43:47.082Z,49.43
2019-01-24T14:46:16.759Z,49.77
2019-01-24T14:48:46.477Z,53.73
2019-01-24T14:51:16.586Z,53.67
2019-01-24T14:53:46.303Z,57.97
2019-01-24T14:56:16.003Z,51.47
2019-01-24T14:58:45.708Z,49.17
2019-01-24T15:01:18.410Z,53.80
2019-01-24T15:03:48.102Z,48.87
2019-01-24T15:06:17.864Z,47.70
2019-01-24T15:08:47.559Z,57.00
2019-01-24T15:11:17.274Z,51.50
2019-01-24T15:13:46.884Z,55.47
2019-01-24T15:16:16.612Z,48.70
2019-01-24T15:18:46.227Z,50.13
2019-01-24T15:21:16.012Z,50.53
2019-01-24T15:23:45.722Z,49.43
2019-01-24T15:26:15.604Z,49.97
2019-01-24T15:28:45.362Z,52.70
2019-01-24T15:31:15.009Z,54.27
2019-01-24T15:33:44.754Z,56.37
2019-01-24T15:36:14.696Z,51.57
2019-01-24T15:38:44.419Z,49.13
2019-01-24T15:41:14.052Z,50.57
2019-01-24T15:43:43.750Z,53.37
2019-01-24T15:46:13.455Z,55.43
2019-01-24T15:48:43.249Z,48.53
2019-01-24T15:51:13.101Z,54.73
2019-01-24T15:53:42.846Z,50.93
2019-01-24T15:56:12.471Z,53.20
2019-01-24T15:58:42.213Z,47.33
2019-01-24T16:01:11.893Z,48.97
2019-01-24T16:03:41.724Z,46.37
2019-01-24T16:06:11.421Z,48.93
2019-01-24T16:08:41.691Z,53.83
2019-01-24T16:11:11.392Z,55.97
2019-01-24T16:13:41.110Z,54.23
2019-01-24T16:16:10.788Z,51.20
2019-01-24T16:18:40.490Z,55.60
2019-01-24T16:21:11.210Z,51.90
2019-01-24T16:23:41.143Z,56.87
2019-01-24T16:26:10.861Z,49.80
2019-01-24T16:28:40.498Z,46.83
2019-01-24T16:31:10.202Z,49.37
2019-01-24T16:33:39.887Z,42.70
2019-01-24T16:36:09.642Z,50.47
2019-01-24T16:38:39.392Z,42.90
2019-01-24T16:41:09.118Z,53.63
2019-01-24T16:43:38.747Z,51.43
2019-01-24T16:46:08.574Z,52.17
2019-01-24T16:48:38.231Z,56.90
2019-01-24T16:51:07.939Z,45.23
2019-01-24T16:53:37.621Z,57.83
2019-01-24T16:56:07.361Z,47.70
2019-01-24T16:58:37.322Z,54.67
2019-01-24T17:01:19.355Z,54.70
2019-01-24T17:03:49.274Z,63.60
2019-01-24T17:06:19.026Z,59.13
2019-01-24T17:08:49.384Z,57.10
2019-01-24T17:11:19.091Z,62.27
2019-01-24T17:13:49.347Z,50.93
2019-01-24T17:16:19.167Z,56.10
2019-01-24T17:18:48.868Z,52.07
2019-01-24T17:21:18.509Z,47.03
2019-01-24T17:23:48.267Z,55.13
2019-01-24T17:26:18.297Z,47.53
2019-01-24T17:28:48.033Z,54.73
2019-01-24T17:31:18.044Z,59.53
2019-01-24T17:33:47.954Z,53.53
2019-01-24T17:36:17.631Z,57.03
2019-01-24T17:38:47.370Z,48.57
2019-01-24T17:41:17.143Z,49.00
2019-01-24T17:43:46.837Z,57.73
2019-01-24T17:46:16.539Z,57.90
2019-01-24T17:48:46.175Z,56.43
2019-01-24T17:51:16.709Z,54.03
2019-01-24T17:53:50.179Z,52.70
2019-01-24T17:56:19.845Z,47.63
2019-01-24T17:58:49.659Z,54.83
2019-01-24T18:01:21.029Z,52.47
2019-01-24T18:03:50.717Z,56.30
2019-01-24T18:06:20.486Z,50.80
2019-01-24T18:08:50.240Z,59.27
2019-01-24T18:11:19.950Z,52.37
2019-01-24T18:13:49.601Z,53.63
2019-01-24T18:16:19.302Z,56.37
2019-01-24T18:18:49.025Z,43.67
2019-01-24T18:21:18.756Z,52.73
2019-01-24T18:23:48.413Z,48.50
2019-01-24T18:26:19.142Z,48.40
2019-01-24T18:28:49.556Z,54.00
2019-01-24T18:31:19.288Z,51.40
2019-01-24T18:33:48.983Z,56.50
2019-01-24T18:36:18.667Z,52.93
2019-01-24T18:38:49.222Z,57.07
2019-01-24T18:41:19.759Z,43.93
2019-01-24T18:43:51.796Z,45.13
2019-01-24T18:46:21.495Z,51.17
2019-01-24T18:48:51.179Z,43.87
2019-01-24T18:51:20.887Z,51.57
2019-01-24T18:53:50.587Z,54.17
2019-01-24T18:56:20.273Z,53.77
2019-01-24T18:58:50.429Z,46.03
2019-01-24T19:01:20.442Z,46.87
2019-01-24T19:03:50.178Z,50.60
2019-01-24T19:06:21.498Z,52.77
2019-01-24T19:08:51.186Z,45.37
2019-01-24T19:11:21.166Z,42.60
2019-01-24T19:13:50.833Z,51.17
2019-01-24T19:16:20.623Z,49.17
2019-01-24T19:18:50.325Z,43.37
2019-01-24T19:21:20.002Z,48.17
2019-01-24T19:23:49.724Z,46.37
2019-01-24T19:26:23.961Z,58.60
2019-01-24T19:28:54.086Z,51.73
2019-01-24T19:31:24.179Z,50.37
2019-01-24T19:33:57.821Z,51.50
2019-01-24T19:36:27.966Z,44.77
2019-01-24T19:38:57.774Z,48.67
2019-01-24T19:41:27.456Z,50.30
2019-01-24T19:43:57.147Z,49.93
2019-01-24T19:46:26.943Z,49.90
2019-01-24T19:48:56.627Z,53.37
2019-01-24T19:51:26.410Z,50.47
2019-01-24T19:53:56.197Z,49.60
2019-01-24T19:56:26.622Z,56.30
2019-01-24T19:58:56.511Z,45.13
2019-01-24T20:01:26.392Z,58.47
2019-01-24T20:03:56.379Z,56.73
2019-01-24T20:06:26.648Z,51.40
2019-01-24T20:09:00.424Z,54.60
2019-01-24T20:11:27.826Z,52.27
2019-01-24T20:13:57.594Z,53.03
2019-01-24T20:16:27.571Z,56.17
2019-01-24T20:18:57.323Z,58.13
2019-01-24T20:21:27.192Z,54.20
2019-01-24T20:23:57.051Z,60.10
2019-01-24T20:26:26.729Z,48.07
2019-01-24T20:28:56.774Z,56.13
2019-01-24T20:31:26.506Z,47.67
2019-01-24T20:33:59.006Z,56.00
2019-01-24T20:36:30.040Z,59.57
2019-01-24T20:38:59.843Z,54.93
2019-01-24T20:41:31.837Z,57.67
2019-01-24T20:44:01.618Z,56.87
2019-01-24T20:46:31.970Z,56.70
2019-01-24T20:49:01.756Z,55.80
2019-01-24T20:51:31.634Z,58.77
2019-01-24T20:54:01.332Z,47.17
2019-01-24T20:56:31.655Z,51.67
2019-01-24T20:59:02.390Z,50.87
2019-01-24T21:01:32.115Z,47.83
2019-01-24T21:04:01.894Z,50.07
2019-01-24T21:06:31.676Z,51.70
2019-01-24T21:09:01.353Z,52.23
2019-01-24T21:11:31.084Z,51.77
2019-01-24T21:14:00.744Z,50.67
2019-01-24T21:16:30.506Z,48.40
2019-01-24T21:19:00.619Z,48.23
2019-01-24T21:21:30.300Z,50.47
2019-01-24T21:24:00.362Z,55.33
2019-01-24T21:26:30.155Z,49.53
2019-01-24T21:28:59.876Z,53.43
2019-01-24T21:31:29.537Z,49.87
2019-01-24T21:33:59.728Z,50.60
2019-01-24T21:36:29.451Z,50.17
2019-01-24T21:39:00.540Z,49.80
2019-01-24T21:41:30.498Z,48.37
2019-01-24T21:44:00.209Z,53.23
2019-01-24T21:46:29.907Z,44.87
2019-01-24T21:48:59.894Z,48.93
2019-01-24T21:51:29.561Z,49.80
2019-01-24T21:54:00.417Z,49.67
2019-01-24T21:56:30.219Z,46.83
2019-01-24T21:59:00.409Z,47.60
2019-01-24T22:01:30.029Z,46.90
2019-01-24T22:03:59.720Z,49.60
2019-01-24T22:06:29.480Z,45.43
2019-01-24T22:08:59.116Z,49.00
2019-01-24T22:11:28.818Z,50.10
2019-01-24T22:13:59.063Z,42.30
2019-01-24T22:16:28.744Z,48.77
2019-01-24T22:18:58.431Z,40.40
2019-01-24T22:21:28.078Z,42.07
2019-01-24T22:23:57.857Z,47.57
2019-01-24T22:26:27.539Z,52.30
2019-01-24T22:28:57.295Z,50.00
2019-01-24T22:31:27.009Z,51.23
2019-01-24T22:33:56.672Z,46.40
2019-01-24T22:36:26.394Z,52.40
2019-01-24T22:38:56.215Z,46.63
2019-01-24T22:41:25.858Z,47.97
2019-01-24T22:43:55.536Z,41.80
2019-01-24T22:46:25.228Z,47.53
2019-01-24T22:48:54.893Z,47.77
2019-01-24T22:51:24.616Z,45.27
2019-01-24T22:53:54.426Z,45.67
2019-01-24T22:56:24.100Z,48.47
2019-01-24T22:58:53.743Z,45.40
2019-01-24T23:01:49.971Z,47.93
2019-01-24T23:04:22.178Z,50.77
2019-01-24T23:06:51.924Z,46.20
2019-01-24T23:09:21.705Z,50.10
2019-01-24T23:11:51.404Z,48.10
2019-01-24T23:14:21.126Z,38.00
2019-01-24T23:16:50.848Z,45.93
2019-01-24T23:19:20.495Z,49.40
2019-01-24T23:21:50.135Z,45.70
2019-01-24T23:24:19.857Z,42.70
2019-01-24T23:26:49.574Z,45.87
2019-01-24T23:29:19.616Z,48.77
2019-01-24T23:31:49.267Z,50.47
2019-01-24T23:34:18.903Z,50.40
2019-01-24T23:36:48.642Z,45.63
2019-01-24T23:39:18.279Z,49.13
2019-01-24T23:41:47.968Z,44.00
2019-01-24T23:44:17.852Z,50.33
2019-01-24T23:46:47.966Z,43.53
2019-01-24T23:49:17.677Z,42.70
2019-01-24T23:51:47.299Z,44.40
2019-01-24T23:54:16.966Z,46.17
2019-01-24T23:56:46.671Z,44.50
2019-01-24T23:59:16.313Z,45.83
